createdAt,value
2019-04-05T00:01:26.518Z,9.97
2019-04-05T00:03:53.269Z,9.77
2019-04-05T00:06:19.999Z,9.60
2019-04-05T00:08:46.739Z,10.30
2019-04-05T00:11:18.434Z,13.97
2019-04-05T00:13:45.233Z,9.20
2019-04-05T00:16:11.963Z,9.97
2019-04-05T00:18:38.715Z,8.77
2019-04-05T00:21:05.649Z,8.70
2019-04-05T00:23:32.384Z,9.10
2019-04-05T00:25:59.142Z,9.53
2019-04-05T00:28:28.827Z,8.63
2019-04-05T00:30:55.583Z,9.23
2019-04-05T00:33:25.443Z,8.33
2019-04-05T00:35:52.248Z,9.73
2019-04-05T00:38:19.007Z,12.10
2019-04-05T00:40:45.861Z,10.20
2019-04-05T00:43:12.789Z,11.20
2019-04-05T00:45:41.987Z,10.30
2019-04-05T00:48:10.551Z,10.33
2019-04-05T00:50:37.492Z,9.23
2019-04-05T00:53:04.350Z,10.07
2019-04-05T00:55:33.406Z,9.07
2019-04-05T00:58:00.364Z,10.47
2019-04-05T01:00:27.122Z,9.80
2019-04-05T01:02:53.905Z,8.53
2019-04-05T01:05:20.891Z,8.40
2019-04-05T01:07:48.145Z,8.30
2019-04-05T01:10:15.563Z,11.20
2019-04-05T01:12:42.451Z,10.77
2019-04-05T01:15:09.861Z,8.20
2019-04-05T01:17:36.891Z,10.17
2019-04-05T01:20:08.731Z,10.60
2019-04-05T01:22:38.530Z,8.30
2019-04-05T01:25:05.272Z,8.57
2019-04-05T01:27:32.208Z,9.60
2019-04-05T01:29:58.949Z,8.70
2019-04-05T01:32:26.082Z,8.60
2019-04-05T01:34:52.812Z,7.60
2019-04-05T01:37:19.875Z,8.73
2019-04-05T01:39:46.562Z,8.97
2019-04-05T01:42:13.292Z,9.60
2019-04-05T01:44:40.049Z,8.13
2019-04-05T01:47:06.806Z,9.20
2019-04-05T01:49:33.519Z,9.50
2019-04-05T01:52:00.283Z,9.50
2019-04-05T01:54:29.189Z,9.23
2019-04-05T01:56:55.761Z,8.70
2019-04-05T01:59:22.470Z,9.50
2019-04-05T02:01:49.216Z,10.40
2019-04-05T02:04:15.990Z,10.60
2019-04-05T02:06:42.710Z,11.73
2019-04-05T02:09:09.951Z,12.23
2019-04-05T02:11:36.672Z,10.20
2019-04-05T02:14:03.394Z,12.17
2019-04-05T02:16:30.136Z,10.70
2019-04-05T02:18:57.137Z,11.20
2019-04-05T02:21:24.019Z,9.40
2019-04-05T02:23:50.794Z,8.93
2019-04-05T02:26:17.534Z,9.87
2019-04-05T02:28:44.276Z,10.53
2019-04-05T02:31:11.158Z,10.70
2019-04-05T02:33:37.911Z,8.90
2019-04-05T02:36:04.706Z,9.13
2019-04-05T02:38:31.567Z,9.47
2019-04-05T02:40:59.090Z,9.00
2019-04-05T02:43:26.607Z,8.60
2019-04-05T02:45:53.369Z,11.03
2019-04-05T02:48:20.275Z,8.60
2019-04-05T02:50:48.690Z,10.30
2019-04-05T02:53:15.479Z,10.60
2019-04-05T02:55:42.351Z,8.40
2019-04-05T02:58:10.448Z,9.03
2019-04-05T03:00:37.313Z,9.50
2019-04-05T03:03:04.343Z,8.50
2019-04-05T03:05:31.066Z,8.70
2019-04-05T03:07:57.818Z,9.90
2019-04-05T03:10:54.188Z,8.73
2019-04-05T03:13:21.564Z,7.40
2019-04-05T03:15:48.297Z,8.20
2019-04-05T03:18:15.032Z,6.90
2019-04-05T03:20:41.913Z,7.47
2019-04-05T03:23:09.230Z,7.37
2019-04-05T03:25:36.616Z,8.20
2019-04-05T03:28:03.369Z,8.23
2019-04-05T03:30:30.170Z,7.00
2019-04-05T03:32:57.005Z,6.87
2019-04-05T03:35:23.787Z,8.47
2019-04-05T03:37:50.580Z,8.53
2019-04-05T03:40:17.322Z,8.20
2019-04-05T03:42:44.113Z,9.10
2019-04-05T03:45:11.105Z,7.37
2019-04-05T03:47:37.841Z,7.97
2019-04-05T03:50:05.670Z,7.40
2019-04-05T03:52:32.403Z,8.20
2019-04-05T03:55:00.757Z,8.40
2019-04-05T03:57:27.500Z,10.37
2019-04-05T03:59:54.236Z,6.67
2019-04-05T04:02:23.521Z,7.27
2019-04-05T04:04:49.821Z,7.40
2019-04-05T04:07:19.372Z,7.67
2019-04-05T04:09:46.106Z,6.80
2019-04-05T04:12:12.880Z,7.30
2019-04-05T04:14:39.704Z,7.50
2019-04-05T04:17:12.701Z,9.47
2019-04-05T04:19:35.275Z,11.20
2019-04-05T04:22:22.874Z,9.70
2019-04-05T04:24:49.924Z,9.30
2019-04-05T04:27:16.952Z,10.37
2019-04-05T04:29:43.921Z,8.53
2019-04-05T04:32:10.764Z,9.43
2019-04-05T04:34:37.485Z,16.03
2019-04-05T04:37:04.314Z,9.90
2019-04-05T04:39:31.032Z,10.30
2019-04-05T04:41:59.142Z,8.80
2019-04-05T04:44:29.466Z,10.80
2019-04-05T04:46:56.191Z,9.60
2019-04-05T04:49:22.932Z,10.07
2019-04-05T04:51:49.649Z,13.57
2019-04-05T04:54:16.442Z,12.93
2019-04-05T04:56:43.521Z,8.77
2019-04-05T04:59:10.263Z,10.00
2019-04-05T05:01:39.886Z,10.47
2019-04-05T05:04:08.272Z,10.47
2019-04-05T05:06:35.409Z,9.83
2019-04-05T05:09:04.828Z,13.53
2019-04-05T05:11:33.926Z,12.50
2019-04-05T05:14:01.004Z,10.53
2019-04-05T05:16:28.148Z,12.33
2019-04-05T05:18:55.130Z,13.53
2019-04-05T05:21:22.004Z,8.57
2019-04-05T05:23:48.787Z,9.93
2019-04-05T05:26:15.586Z,12.37
2019-04-05T05:28:43.394Z,11.40
2019-04-05T05:31:11.316Z,9.10
2019-04-05T05:33:38.359Z,12.03
2019-04-05T05:36:05.224Z,12.23
2019-04-05T05:38:32.100Z,13.13
2019-04-05T05:40:59.113Z,10.10
2019-04-05T05:43:26.541Z,9.23
2019-04-05T05:45:53.540Z,10.60
2019-04-05T05:48:20.468Z,9.60
2019-04-05T05:50:47.822Z,10.33
2019-04-05T05:53:14.576Z,12.53
2019-04-05T05:55:41.326Z,12.90
2019-04-05T05:58:08.139Z,12.20
2019-04-05T06:00:34.976Z,9.57
2019-04-05T06:03:01.825Z,10.93
2019-04-05T06:05:28.990Z,11.10
2019-04-05T06:07:56.325Z,8.90
2019-04-05T06:10:23.052Z,13.47
2019-04-05T06:12:50.202Z,12.90
2019-04-05T06:15:16.965Z,13.30
2019-04-05T06:17:43.917Z,12.13
2019-04-05T06:20:11.423Z,15.67
2019-04-05T06:22:38.206Z,14.97
2019-04-05T06:25:04.995Z,12.00
2019-04-05T06:27:31.761Z,15.00
2019-04-05T06:29:58.609Z,14.83
2019-04-05T06:32:25.863Z,20.90
2019-04-05T06:34:52.680Z,13.37
2019-04-05T06:37:19.453Z,12.03
2019-04-05T06:39:46.435Z,11.00
2019-04-05T06:42:14.015Z,13.43
2019-04-05T06:44:40.813Z,14.67
2019-04-05T06:47:07.551Z,17.40
2019-04-05T06:49:34.431Z,14.70
2019-04-05T06:52:01.235Z,18.20
2019-04-05T06:54:28.100Z,19.20
2019-04-05T06:56:55.110Z,19.77
2019-04-05T06:59:22.361Z,17.70
2019-04-05T07:01:49.530Z,18.67
2019-04-05T07:04:16.330Z,19.47
2019-04-05T07:06:43.064Z,16.60
2019-04-05T07:09:13.698Z,25.57
2019-04-05T07:11:40.554Z,17.47
2019-04-05T07:14:08.954Z,19.67
2019-04-05T07:16:35.689Z,18.37
2019-04-05T07:19:02.461Z,20.70
2019-04-05T07:21:29.205Z,20.10
2019-04-05T07:23:56.067Z,19.67
2019-04-05T07:26:22.830Z,22.13
2019-04-05T07:28:51.506Z,22.50
2019-04-05T07:31:18.297Z,25.10
2019-04-05T07:33:45.053Z,22.30
2019-04-05T07:36:12.271Z,20.17
2019-04-05T07:38:39.037Z,25.00
2019-04-05T07:41:09.501Z,25.57
2019-04-05T07:43:36.295Z,24.30
2019-04-05T07:46:03.225Z,26.13
2019-04-05T07:48:44.059Z,23.23
2019-04-05T07:51:01.062Z,20.63
2019-04-05T07:53:27.851Z,25.30
2019-04-05T07:55:54.743Z,21.07
2019-04-05T07:58:24.811Z,25.10
2019-04-05T08:00:53.279Z,24.57
2019-04-05T08:03:20.619Z,27.43
2019-04-05T08:05:53.097Z,26.77
2019-04-05T08:08:32.517Z,24.87
2019-04-05T08:10:59.582Z,24.53
2019-04-05T08:13:27.815Z,24.20
2019-04-05T08:15:54.830Z,25.90
2019-04-05T08:18:21.689Z,21.33
2019-04-05T08:20:48.475Z,19.00
2019-04-05T08:23:15.490Z,20.80
2019-04-05T08:25:42.426Z,20.70
2019-04-05T08:28:09.256Z,17.63
2019-04-05T08:30:38.111Z,20.47
2019-04-05T08:33:05.152Z,18.77
2019-04-05T08:35:32.039Z,20.23
2019-04-05T08:37:58.902Z,21.40
2019-04-05T08:40:25.666Z,24.53
2019-04-05T08:42:52.631Z,20.57
2019-04-05T08:45:19.371Z,24.53
2019-04-05T08:47:46.335Z,20.27
2019-04-05T08:50:15.778Z,20.80
2019-04-05T08:52:43.212Z,21.80
2019-04-05T08:55:10.214Z,19.97
2019-04-05T08:57:38.333Z,18.40
2019-04-05T09:00:07.126Z,21.63
2019-04-05T09:02:37.919Z,16.43
2019-04-05T09:05:04.785Z,18.03
2019-04-05T09:07:33.499Z,19.27
2019-04-05T09:10:00.687Z,18.50
2019-04-05T09:12:27.549Z,17.13
2019-04-05T09:14:54.590Z,20.07
2019-04-05T09:17:32.035Z,16.93
2019-04-05T09:19:59.228Z,16.97
2019-04-05T09:22:26.976Z,17.53
2019-04-05T09:24:53.875Z,20.33
2019-04-05T09:27:23.121Z,21.90
2019-04-05T09:30:05.470Z,16.63
2019-04-05T09:32:32.257Z,20.10
2019-04-05T09:34:59.127Z,17.10
2019-04-05T09:37:26.165Z,17.40
2019-04-05T09:39:52.960Z,16.90
2019-04-05T09:42:21.959Z,14.70
2019-04-05T09:44:48.685Z,16.77
2019-04-05T09:47:15.701Z,19.00
2019-04-05T09:49:42.737Z,17.83
2019-04-05T09:52:11.481Z,16.40
2019-04-05T09:54:38.555Z,16.37
2019-04-05T09:57:07.607Z,16.93
2019-04-05T09:59:34.496Z,11.77
2019-04-05T10:02:01.827Z,13.63
2019-04-05T10:04:31.721Z,13.00
2019-04-05T10:07:02.013Z,14.97
2019-04-05T10:09:28.762Z,14.63
2019-04-05T10:11:55.983Z,16.53
2019-04-05T10:14:26.066Z,13.43
2019-04-05T10:16:52.837Z,16.30
2019-04-05T10:19:50.030Z,14.73
2019-04-05T10:22:16.445Z,12.43
2019-04-05T10:24:43.770Z,14.27
2019-04-05T10:27:10.513Z,13.97
2019-04-05T10:29:37.373Z,12.60
2019-04-05T10:32:04.235Z,14.77
2019-04-05T10:34:32.019Z,14.10
2019-04-05T10:36:58.897Z,17.80
2019-04-05T10:39:25.667Z,15.73
2019-04-05T10:42:03.408Z,16.23
2019-04-05T10:44:21.819Z,14.40
2019-04-05T10:46:48.626Z,15.23
2019-04-05T10:49:15.792Z,11.90
2019-04-05T10:51:45.818Z,12.43
2019-04-05T10:54:13.874Z,11.30
2019-04-05T10:56:41.041Z,9.83
2019-04-05T10:59:07.897Z,8.90
2019-04-05T11:01:34.638Z,9.27
2019-04-05T11:04:03.139Z,11.13
2019-04-05T11:06:30.212Z,7.77
2019-04-05T11:08:59.208Z,8.40
2019-04-05T11:11:26.057Z,9.20
2019-04-05T11:13:53.130Z,9.93
2019-04-05T11:16:20.281Z,9.33
2019-04-05T11:18:47.040Z,8.27
2019-04-05T11:21:16.240Z,12.30
2019-04-05T11:23:43.196Z,6.90
2019-04-05T11:26:10.092Z,8.53
2019-04-05T11:28:37.653Z,8.00
2019-04-05T11:31:06.957Z,8.00
2019-04-05T11:33:36.359Z,9.70
2019-04-05T11:36:05.190Z,7.27
2019-04-05T11:38:38.503Z,9.10
2019-04-05T11:41:05.488Z,8.63
2019-04-05T11:43:33.400Z,9.23
2019-04-05T11:46:04.666Z,13.03
2019-04-05T11:48:31.631Z,9.57
2019-04-05T11:50:58.516Z,10.43
2019-04-05T11:53:25.363Z,16.23
2019-04-05T11:55:52.572Z,9.00
2019-04-05T11:58:21.493Z,10.73
2019-04-05T12:01:06.886Z,9.40
2019-04-05T12:03:35.280Z,8.43
2019-04-05T12:06:02.481Z,9.80
2019-04-05T12:08:29.744Z,13.50
2019-04-05T12:10:57.103Z,7.23
2019-04-05T12:13:24.306Z,8.63
2019-04-05T12:15:51.506Z,8.73
2019-04-05T12:18:19.715Z,9.07
2019-04-05T12:20:55.293Z,12.07
2019-04-05T12:23:15.914Z,10.07
2019-04-05T12:25:43.700Z,11.20
2019-04-05T12:28:10.946Z,9.27
2019-04-05T12:30:39.048Z,11.23
2019-04-05T12:33:13.970Z,9.33
2019-04-05T12:35:37.463Z,10.50
2019-04-05T12:38:06.773Z,9.43
2019-04-05T12:40:32.955Z,8.83
2019-04-05T12:43:00.122Z,11.00
2019-04-05T12:45:27.429Z,10.87
2019-04-05T12:47:54.460Z,11.00
2019-04-05T12:50:21.290Z,11.80
2019-04-05T12:52:48.028Z,8.73
2019-04-05T12:55:15.602Z,10.53
2019-04-05T12:57:48.336Z,12.50
2019-04-05T13:00:14.545Z,12.57
2019-04-05T13:02:41.807Z,19.17
2019-04-05T13:05:10.862Z,12.63
2019-04-05T13:07:39.603Z,12.40
2019-04-05T13:10:09.372Z,11.67
2019-04-05T13:12:37.443Z,11.40
2019-04-05T13:15:12.892Z,11.10
2019-04-05T13:17:36.679Z,13.17
2019-04-05T13:20:04.857Z,10.87
2019-04-05T13:22:33.025Z,12.03
2019-04-05T13:25:00.287Z,15.37
2019-04-05T13:27:29.359Z,15.50
2019-04-05T13:29:56.732Z,15.77
2019-04-05T13:32:25.803Z,12.60
2019-04-05T13:34:53.565Z,14.00
2019-04-05T13:37:22.908Z,12.93
2019-04-05T13:39:49.699Z,18.63
2019-04-05T13:42:16.625Z,14.80
2019-04-05T13:44:43.783Z,19.90
2019-04-05T13:47:10.530Z,23.30
2019-04-05T13:49:38.560Z,18.60
2019-04-05T13:52:07.479Z,18.13
2019-04-05T13:54:35.776Z,25.73
2019-04-05T13:57:03.202Z,20.90
2019-04-05T13:59:38.392Z,22.03
2019-04-05T14:02:06.684Z,18.77
2019-04-05T14:04:34.070Z,19.27
2019-04-05T14:07:03.556Z,21.93
2019-04-05T14:09:31.776Z,22.90
2019-04-05T14:11:58.710Z,19.80
2019-04-05T14:14:28.376Z,22.90
2019-04-05T14:16:55.543Z,21.93
2019-04-05T14:19:23.938Z,22.97
2019-04-05T14:21:53.608Z,22.87
2019-04-05T14:24:24.312Z,20.73
2019-04-05T14:26:54.958Z,23.20
2019-04-05T14:29:21.776Z,24.10
2019-04-05T14:31:48.602Z,21.60
2019-04-05T14:34:23.426Z,23.67
2019-04-05T14:36:50.038Z,23.53
2019-04-05T14:39:35.052Z,20.10
2019-04-05T14:42:09.593Z,23.40
2019-04-05T14:44:30.741Z,24.17
2019-04-05T14:46:58.086Z,23.37
2019-04-05T14:49:30.686Z,28.90
2019-04-05T14:52:01.148Z,20.77
2019-04-05T14:54:30.283Z,25.33
2019-04-05T14:57:02.375Z,25.83
2019-04-05T14:59:28.388Z,23.43
2019-04-05T15:01:55.267Z,29.53
2019-04-05T15:04:23.010Z,25.00
2019-04-05T15:06:50.656Z,27.43
2019-04-05T15:09:21.821Z,27.53
2019-04-05T15:11:49.817Z,25.77
2019-04-05T15:14:19.800Z,23.27
2019-04-05T15:16:46.692Z,23.93
2019-04-05T15:19:13.489Z,29.20
2019-04-05T15:21:40.340Z,25.33
2019-04-05T15:24:09.446Z,25.87
2019-04-05T15:26:36.597Z,26.93
2019-04-05T15:29:03.343Z,27.07
2019-04-05T15:31:32.752Z,24.90
2019-04-05T15:34:02.244Z,25.87
2019-04-05T15:36:29.419Z,27.40
2019-04-05T15:39:01.246Z,30.13
2019-04-05T15:41:30.252Z,28.23
2019-04-05T15:44:00.053Z,26.77
2019-04-05T15:46:27.326Z,23.20
2019-04-05T15:48:54.047Z,29.33
2019-04-05T15:51:22.524Z,23.17
2019-04-05T15:53:53.059Z,28.70
2019-04-05T15:56:20.212Z,23.70
2019-04-05T15:58:52.246Z,23.63
2019-04-05T16:01:25.059Z,21.80
2019-04-05T16:03:51.918Z,26.87
2019-04-05T16:06:20.070Z,23.13
2019-04-05T16:08:47.127Z,25.17
2019-04-05T16:11:16.506Z,26.70
2019-04-05T16:13:48.116Z,25.87
2019-04-05T16:16:15.147Z,29.30
2019-04-05T16:18:42.380Z,34.70
2019-04-05T16:21:09.122Z,30.07
2019-04-05T16:23:38.094Z,30.37
2019-04-05T16:26:09.216Z,29.23
2019-04-05T16:28:36.228Z,26.47
2019-04-05T16:31:10.927Z,27.97
2019-04-05T16:33:38.695Z,28.77
2019-04-05T16:36:05.568Z,29.23
2019-04-05T16:38:33.092Z,27.40
2019-04-05T16:41:02.179Z,35.67
2019-04-05T16:43:29.086Z,33.00
2019-04-05T16:45:55.976Z,29.67
2019-04-05T16:48:22.915Z,28.53
2019-04-05T16:50:49.767Z,37.67
2019-04-05T16:53:16.644Z,29.27
2019-04-05T16:55:43.460Z,26.90
2019-04-05T16:58:10.178Z,29.17
2019-04-05T17:00:36.926Z,29.90
2019-04-05T17:03:07.254Z,30.47
2019-04-05T17:05:34.200Z,27.77
2019-04-05T17:08:03.738Z,31.80
2019-04-05T17:10:30.925Z,28.43
2019-04-05T17:12:57.697Z,29.50
2019-04-05T17:15:24.789Z,29.03
2019-04-05T17:17:51.596Z,27.67
2019-04-05T17:20:18.427Z,34.53
2019-04-05T17:22:57.532Z,32.83
2019-04-05T17:25:13.806Z,33.43
2019-04-05T17:27:40.872Z,30.07
2019-04-05T17:30:07.607Z,29.60
2019-04-05T17:32:42.179Z,30.47
2019-04-05T17:35:14.246Z,30.13
2019-04-05T17:37:41.571Z,35.73
2019-04-05T17:40:08.333Z,29.03
2019-04-05T17:42:35.164Z,29.60
2019-04-05T17:45:02.240Z,30.30
2019-04-05T17:47:29.113Z,31.30
2019-04-05T17:49:56.079Z,37.40
2019-04-05T17:52:22.905Z,28.20
2019-04-05T17:54:49.621Z,31.20
2019-04-05T17:57:16.657Z,33.27
2019-04-05T17:59:46.169Z,31.63
2019-04-05T18:02:13.018Z,26.63
2019-04-05T18:04:40.120Z,31.47
2019-04-05T18:07:06.869Z,35.70
2019-04-05T18:09:33.623Z,33.40
2019-04-05T18:12:02.712Z,33.23
2019-04-05T18:14:30.038Z,30.90
2019-04-05T18:16:56.823Z,29.50
2019-04-05T18:19:23.729Z,38.30
2019-04-05T18:21:50.749Z,29.33
2019-04-05T18:24:17.608Z,30.83
2019-04-05T18:26:44.741Z,31.77
2019-04-05T18:29:11.485Z,33.50
2019-04-05T18:31:39.325Z,27.60
2019-04-05T18:34:08.955Z,36.37
2019-04-05T18:36:35.845Z,29.10
2019-04-05T18:39:04.621Z,31.30
2019-04-05T18:41:31.490Z,34.40
2019-04-05T18:43:58.285Z,37.10
2019-04-05T18:46:25.059Z,35.50
2019-04-05T18:48:55.390Z,30.17
2019-04-05T18:51:25.247Z,31.90
2019-04-05T18:53:52.106Z,29.27
2019-04-05T18:56:18.869Z,30.20
2019-04-05T18:58:45.903Z,29.90
2019-04-05T19:01:13.727Z,32.70
2019-04-05T19:03:43.309Z,28.73
2019-04-05T19:06:10.098Z,32.00
2019-04-05T19:08:39.873Z,30.90
2019-04-05T19:11:06.546Z,32.20
2019-04-05T19:13:33.861Z,34.73
2019-04-05T19:16:01.140Z,32.43
2019-04-05T19:18:28.009Z,36.43
2019-04-05T19:20:58.294Z,37.50
2019-04-05T19:23:25.445Z,34.10
2019-04-05T19:25:52.145Z,38.07
2019-04-05T19:28:19.203Z,32.50
2019-04-05T19:49:15.320Z,38.73
2019-04-05T19:51:42.479Z,35.70
2019-04-05T19:54:12.726Z,33.77
2019-04-05T19:56:39.529Z,32.87
2019-04-05T19:59:13.022Z,34.37
2019-04-05T20:01:39.794Z,32.90
2019-04-05T20:04:06.683Z,38.03
2019-04-05T20:06:33.466Z,33.30
2019-04-05T20:09:00.381Z,36.10
2019-04-05T20:11:28.079Z,32.03
2019-04-05T20:13:55.219Z,31.37
2019-04-05T20:16:26.185Z,34.83
2019-04-05T20:18:52.917Z,29.90
2019-04-05T20:21:19.663Z,29.63
2019-04-05T20:23:47.655Z,30.97
2019-04-05T20:26:14.992Z,32.83
2019-04-05T20:28:43.005Z,31.30
2019-04-05T20:31:09.808Z,27.87
2019-04-05T20:33:36.600Z,34.23
2019-04-05T20:36:03.592Z,29.73
2019-04-05T20:38:30.632Z,32.37
2019-04-05T20:41:03.032Z,33.90
2019-04-05T20:43:29.858Z,31.43
2019-04-05T20:45:57.356Z,32.77
2019-04-05T20:48:24.120Z,32.93
2019-04-05T20:50:51.260Z,29.23
2019-04-05T20:53:21.936Z,30.23
2019-04-05T20:55:49.177Z,31.73
2019-04-05T20:58:15.991Z,30.30
2019-04-05T21:00:42.732Z,33.67
2019-04-05T21:03:09.483Z,31.00
2019-04-05T21:05:36.196Z,33.37
2019-04-05T21:08:03.038Z,29.43
2019-04-05T21:10:29.856Z,30.87
2019-04-05T21:13:00.067Z,33.40
2019-04-05T21:15:27.117Z,26.30
2019-04-05T21:17:53.878Z,31.83
2019-04-05T21:20:20.756Z,26.60
2019-04-05T21:22:50.263Z,28.20
2019-04-05T21:25:17.245Z,29.27
2019-04-05T21:27:46.678Z,28.73
2019-04-05T21:30:14.005Z,29.60
2019-04-05T21:32:40.722Z,29.17
2019-04-05T21:35:09.936Z,30.97
2019-04-05T21:37:36.828Z,30.93
2019-04-05T21:40:04.018Z,30.40
2019-04-05T21:42:32.241Z,31.13
2019-04-05T21:44:59.957Z,30.20
2019-04-05T21:47:27.758Z,26.43
2019-04-05T21:49:56.200Z,27.83
2019-04-05T21:52:26.373Z,29.80
2019-04-05T21:54:53.132Z,31.13
2019-04-05T21:57:22.363Z,28.93
2019-04-05T21:59:49.114Z,29.50
2019-04-05T22:02:15.983Z,29.13
2019-04-05T22:04:42.821Z,28.73
2019-04-05T22:07:11.902Z,30.77
2019-04-05T22:09:38.677Z,29.13
2019-04-05T22:12:05.398Z,28.43
2019-04-05T22:14:40.476Z,30.90
2019-04-05T22:17:07.344Z,29.83
2019-04-05T22:19:34.883Z,29.47
2019-04-05T22:22:02.031Z,28.80
2019-04-05T22:24:28.746Z,29.00
2019-04-05T22:26:55.630Z,29.87
2019-04-05T22:29:25.276Z,27.97
2019-04-05T22:31:53.556Z,29.60
2019-04-05T22:34:23.661Z,28.40
2019-04-05T22:36:50.664Z,27.43
2019-04-05T22:39:17.533Z,31.00
2019-04-05T22:41:44.300Z,32.43
2019-04-05T22:44:11.643Z,29.63
2019-04-05T22:46:38.440Z,29.57
2019-04-05T22:49:05.186Z,30.10
2019-04-05T22:51:32.086Z,28.90
2019-04-05T22:54:00.632Z,29.10
2019-04-05T22:56:27.412Z,28.40
2019-04-05T22:58:54.818Z,28.93
2019-04-05T23:01:21.612Z,30.17
2019-04-05T23:03:48.405Z,29.63
2019-04-05T23:06:15.336Z,29.43
2019-04-05T23:08:43.596Z,28.87
2019-04-05T23:11:14.567Z,27.87
2019-04-05T23:13:41.355Z,29.77
2019-04-05T23:16:10.878Z,27.23
2019-04-05T23:18:37.717Z,26.70
2019-04-05T23:21:04.680Z,28.40
2019-04-05T23:23:31.513Z,29.20
2019-04-05T23:25:58.260Z,28.00
2019-04-05T23:28:25.152Z,30.20
2019-04-05T23:30:52.307Z,28.00
2019-04-05T23:33:19.160Z,29.30
2019-04-05T23:35:49.450Z,28.80
2019-04-05T23:38:16.183Z,29.20
2019-04-05T23:40:43.165Z,28.43
2019-04-05T23:43:09.877Z,30.47
2019-04-05T23:45:36.743Z,27.63
2019-04-05T23:48:03.504Z,28.80
2019-04-05T23:50:30.325Z,28.40
2019-04-05T23:52:57.018Z,27.10
2019-04-05T23:55:32.811Z,27.97
2019-04-05T23:57:52.740Z,28.67
